createdAt,value
2018-05-10T00:01:34.663Z,6.27
2018-05-10T00:04:03.154Z,6.40
2018-05-10T00:06:31.663Z,6.50
2018-05-10T00:09:00.066Z,7.10
2018-05-10T00:11:28.440Z,7.00
2018-05-10T00:13:56.772Z,7.70
2018-05-10T00:16:25.114Z,7.43
2018-05-10T00:18:53.463Z,7.23
2018-05-10T00:21:21.837Z,8.60
2018-05-10T00:23:50.959Z,7.40
2018-05-10T00:26:20.077Z,8.57
2018-05-10T00:28:48.405Z,6.97
2018-05-10T00:31:16.954Z,7.50
2018-05-10T00:33:45.282Z,8.17
2018-05-10T00:36:13.595Z,8.63
2018-05-10T00:38:41.944Z,8.00
2018-05-10T00:41:10.260Z,7.90
2018-05-10T00:43:39.360Z,7.40
2018-05-10T00:46:08.483Z,7.20
2018-05-10T00:48:36.811Z,7.63
2018-05-10T00:51:05.222Z,8.83
2018-05-10T00:53:33.892Z,8.67
2018-05-10T00:56:02.218Z,7.53
2018-05-10T00:58:30.558Z,7.60
2018-05-10T01:00:59.672Z,8.43
2018-05-10T01:03:27.999Z,9.00
2018-05-10T01:05:56.309Z,8.77
2018-05-10T01:08:24.659Z,9.40
2018-05-10T01:10:52.981Z,7.80
2018-05-10T01:13:21.287Z,8.50
2018-05-10T01:15:50.032Z,8.20
2018-05-10T01:18:19.129Z,7.87
2018-05-10T01:20:47.434Z,7.77
2018-05-10T01:23:15.786Z,7.97
2018-05-10T01:25:44.908Z,8.30
2018-05-10T01:28:13.226Z,7.90
2018-05-10T01:30:41.561Z,7.67
2018-05-10T01:33:09.877Z,9.10
2018-05-10T01:38:48.659Z,8.57
2018-05-10T01:41:17.766Z,8.50
2018-05-10T01:43:46.851Z,7.90
2018-05-10T01:46:15.923Z,8.00
2018-05-10T01:48:44.275Z,8.10
2018-05-10T01:51:12.584Z,9.10
2018-05-10T01:53:40.888Z,8.07
2018-05-10T01:56:10.169Z,8.47
2018-05-10T01:58:38.503Z,8.90
2018-05-10T02:01:06.818Z,8.23
2018-05-10T02:03:35.186Z,8.40
2018-05-10T02:06:03.503Z,8.47
2018-05-10T02:08:32.643Z,8.83
2018-05-10T02:11:01.008Z,7.80
2018-05-10T02:13:29.355Z,8.50
2018-05-10T02:15:57.672Z,8.00
2018-05-10T02:18:26.304Z,8.83
2018-05-10T02:20:54.630Z,8.90
2018-05-10T02:23:23.027Z,8.70
2018-05-10T02:25:51.374Z,9.20
2018-05-10T02:28:19.700Z,9.20
2018-05-10T02:30:48.001Z,8.53
2018-05-10T02:33:16.352Z,9.20
2018-05-10T02:35:44.714Z,9.40
2018-05-10T02:38:13.071Z,8.67
2018-05-10T02:40:41.666Z,8.23
2018-05-10T02:43:09.991Z,9.60
2018-05-10T02:45:39.096Z,9.70
2018-05-10T02:48:08.201Z,8.90
2018-05-10T02:50:37.305Z,9.57
2018-05-10T02:53:06.393Z,10.30
2018-05-10T02:55:35.494Z,9.10
2018-05-10T02:58:04.639Z,8.90
2018-05-10T03:00:32.931Z,8.40
2018-05-10T03:03:01.812Z,9.73
2018-05-10T03:05:30.141Z,9.03
2018-05-10T03:07:59.228Z,9.53
2018-05-10T03:10:27.566Z,9.67
2018-05-10T03:12:55.881Z,8.87
2018-05-10T03:15:24.951Z,9.10
2018-05-10T03:17:53.276Z,9.30
2018-05-10T03:20:22.351Z,9.30
2018-05-10T03:22:50.668Z,9.33
2018-05-10T03:25:19.619Z,9.23
2018-05-10T03:27:47.947Z,9.50
2018-05-10T03:30:16.285Z,9.30
2018-05-10T03:32:45.392Z,9.77
2018-05-10T03:35:14.466Z,9.80
2018-05-10T03:37:42.760Z,9.73
2018-05-10T03:40:11.849Z,10.00
2018-05-10T03:42:40.911Z,9.90
2018-05-10T03:45:09.237Z,9.13
2018-05-10T03:47:38.694Z,9.00
2018-05-10T03:50:07.037Z,10.00
2018-05-10T03:52:35.352Z,10.50
2018-05-10T03:55:04.506Z,10.70
2018-05-10T03:57:32.828Z,10.33
2018-05-10T04:00:01.155Z,10.03
2018-05-10T04:05:55.613Z,10.50
2018-05-10T04:08:41.358Z,9.40
2018-05-10T04:11:29.151Z,11.10
2018-05-10T04:13:57.509Z,10.37
2018-05-10T04:16:26.613Z,10.17
2018-05-10T04:18:54.918Z,10.17
2018-05-10T04:21:23.452Z,11.17
2018-05-10T04:23:51.808Z,10.07
2018-05-10T04:26:20.129Z,10.60
2018-05-10T04:28:48.762Z,10.80
2018-05-10T04:31:17.090Z,10.30
2018-05-10T04:33:45.444Z,11.10
2018-05-10T04:36:14.547Z,10.50
2018-05-10T04:38:42.861Z,11.10
2018-05-10T04:41:11.214Z,11.03
2018-05-10T04:43:39.867Z,11.17
2018-05-10T04:46:08.941Z,10.43
2018-05-10T04:48:38.035Z,11.00
2018-05-10T04:51:06.358Z,10.50
2018-05-10T04:53:34.670Z,11.70
2018-05-10T04:56:02.993Z,11.00
2018-05-10T04:58:32.084Z,10.73
2018-05-10T05:01:01.184Z,12.33
2018-05-10T05:03:30.289Z,11.03
2018-05-10T05:05:59.653Z,12.07
2018-05-10T05:08:28.053Z,11.40
2018-05-10T05:10:57.144Z,11.70
2018-05-10T05:13:26.231Z,11.40
2018-05-10T05:15:54.563Z,12.20
2018-05-10T05:18:22.886Z,11.50
2018-05-10T05:20:51.219Z,11.97
2018-05-10T05:23:19.542Z,11.63
2018-05-10T05:25:47.865Z,12.70
2018-05-10T05:28:16.528Z,12.47
2018-05-10T05:30:45.883Z,11.20
2018-05-10T05:33:14.210Z,12.10
2018-05-10T05:35:42.567Z,12.30
2018-05-10T05:38:10.913Z,11.93
2018-05-10T05:40:39.222Z,12.40
2018-05-10T05:43:07.563Z,12.60
2018-05-10T05:45:35.906Z,11.03
2018-05-10T05:48:04.986Z,12.80
2018-05-10T05:50:33.581Z,13.37
2018-05-10T05:53:01.899Z,11.77
2018-05-10T05:55:30.263Z,13.00
2018-05-10T05:57:58.614Z,11.83
2018-05-10T06:00:27.705Z,11.97
2018-05-10T06:02:56.065Z,11.87
2018-05-10T06:05:24.424Z,12.13
2018-05-10T06:07:52.738Z,11.93
2018-05-10T06:10:21.039Z,11.87
2018-05-10T06:12:49.699Z,12.93
2018-05-10T06:15:18.027Z,12.40
2018-05-10T06:17:46.354Z,12.27
2018-05-10T06:20:14.696Z,12.33
2018-05-10T06:22:43.043Z,11.50
2018-05-10T06:25:11.503Z,11.10
2018-05-10T06:27:39.747Z,11.50
2018-05-10T06:30:08.099Z,12.33
2018-05-10T06:32:36.423Z,12.00
2018-05-10T06:35:04.863Z,11.47
2018-05-10T06:37:33.193Z,10.10
2018-05-10T06:40:02.300Z,10.90
2018-05-10T06:42:31.450Z,11.30
2018-05-10T06:44:59.780Z,11.33
2018-05-10T06:47:28.135Z,10.60
2018-05-10T06:49:56.488Z,11.17
2018-05-10T06:52:24.844Z,11.50
2018-05-10T06:54:53.178Z,12.40
2018-05-10T06:57:22.795Z,11.90
2018-05-10T06:59:51.122Z,12.07
2018-05-10T07:02:19.700Z,11.60
2018-05-10T07:04:48.036Z,12.63
2018-05-10T07:07:16.383Z,12.40
2018-05-10T07:09:44.875Z,12.40
2018-05-10T07:12:13.114Z,13.10
2018-05-10T07:14:41.424Z,12.00
2018-05-10T07:17:09.750Z,12.07
2018-05-10T07:19:38.501Z,13.43
2018-05-10T07:22:06.815Z,11.97
2018-05-10T07:24:35.138Z,12.60
2018-05-10T07:27:03.495Z,13.40
2018-05-10T07:29:31.834Z,12.90
2018-05-10T07:32:00.175Z,12.60
2018-05-10T07:34:28.556Z,13.40
2018-05-10T07:36:56.879Z,13.20
2018-05-10T07:39:25.219Z,13.03
2018-05-10T07:41:53.611Z,12.27
2018-05-10T07:44:21.947Z,13.10
2018-05-10T07:46:50.256Z,12.60
2018-05-10T07:49:18.598Z,13.33
2018-05-10T07:51:46.912Z,11.87
2018-05-10T07:54:15.246Z,12.80
2018-05-10T07:56:43.618Z,12.37
2018-05-10T07:59:11.962Z,12.27
2018-05-10T08:01:41.088Z,11.87
2018-05-10T08:04:09.961Z,12.23
2018-05-10T08:06:39.069Z,11.50
2018-05-10T08:09:07.430Z,12.57
2018-05-10T08:11:35.870Z,11.97
2018-05-10T08:14:04.212Z,12.10
2018-05-10T08:16:33.311Z,12.53
2018-05-10T08:19:02.419Z,10.90
2018-05-10T08:21:31.487Z,11.10
2018-05-10T08:24:00.563Z,10.33
2018-05-10T08:26:29.360Z,10.93
2018-05-10T08:28:57.717Z,10.90
2018-05-10T08:31:26.078Z,11.90
2018-05-10T08:33:54.595Z,11.57
2018-05-10T08:36:22.901Z,11.00
2018-05-10T08:38:52.001Z,11.30
2018-05-10T08:41:20.372Z,11.53
2018-05-10T08:43:48.714Z,11.03
2018-05-10T08:46:17.032Z,11.50
2018-05-10T08:48:45.918Z,10.90
2018-05-10T08:51:14.232Z,12.03
2018-05-10T08:53:42.596Z,12.47
2018-05-10T08:56:10.936Z,11.30
2018-05-10T08:58:39.273Z,10.87
2018-05-10T09:01:07.587Z,11.67
2018-05-10T09:03:35.943Z,11.30
2018-05-10T09:06:10.200Z,12.07
2018-05-10T09:08:39.138Z,11.97
2018-05-10T09:11:07.476Z,11.43
2018-05-10T09:13:35.827Z,10.83
2018-05-10T09:16:04.194Z,11.70
2018-05-10T09:18:32.504Z,12.10
2018-05-10T09:21:01.632Z,11.87
2018-05-10T09:23:30.016Z,12.10
2018-05-10T09:25:58.398Z,11.80
2018-05-10T09:28:26.724Z,11.13
2018-05-10T09:30:55.645Z,12.27
2018-05-10T09:33:23.959Z,12.33
2018-05-10T09:35:52.310Z,10.53
2018-05-10T09:38:21.457Z,11.53
2018-05-10T09:40:49.810Z,10.93
2018-05-10T09:43:18.167Z,11.23
2018-05-10T09:45:47.302Z,10.97
2018-05-10T09:48:15.611Z,10.70
2018-05-10T09:50:43.956Z,10.57
2018-05-10T09:53:12.493Z,10.80
2018-05-10T09:55:41.595Z,11.07
2018-05-10T09:58:10.667Z,10.30
2018-05-10T10:00:39.789Z,9.93
2018-05-10T10:03:08.876Z,9.43
2018-05-10T10:05:37.949Z,8.43
2018-05-10T10:08:06.314Z,10.30
2018-05-10T10:10:34.679Z,10.50
2018-05-10T10:13:03.002Z,9.27
2018-05-10T10:15:32.613Z,9.83
2018-05-10T10:18:00.942Z,9.30
2018-05-10T10:20:29.311Z,9.73
2018-05-10T10:22:57.671Z,9.47
2018-05-10T10:25:25.991Z,9.20
2018-05-10T10:27:55.097Z,9.47
2018-05-10T10:30:23.469Z,9.10
2018-05-10T10:32:51.881Z,9.93
2018-05-10T10:35:20.993Z,10.03
2018-05-10T10:37:50.180Z,10.07
2018-05-10T10:40:18.510Z,8.80
2018-05-10T10:42:46.927Z,9.70
2018-05-10T10:45:16.047Z,9.17
2018-05-10T10:47:45.122Z,9.60
2018-05-10T10:50:14.266Z,9.70
2018-05-10T10:52:42.623Z,10.03
2018-05-10T10:55:10.955Z,9.70
2018-05-10T10:57:39.268Z,10.50
2018-05-10T11:00:07.955Z,10.30
2018-05-10T11:02:36.297Z,9.70
2018-05-10T11:05:04.627Z,9.40
2018-05-10T11:07:33.031Z,9.73
2018-05-10T11:10:01.359Z,8.20
2018-05-10T11:12:29.699Z,9.47
2018-05-10T11:14:58.129Z,9.63
2018-05-10T11:17:27.221Z,9.40
2018-05-10T11:19:56.299Z,9.23
2018-05-10T11:22:24.863Z,9.90
2018-05-10T11:24:53.935Z,9.20
2018-05-10T11:27:22.343Z,8.80
2018-05-10T11:29:51.401Z,8.20
2018-05-10T11:32:19.887Z,8.70
2018-05-10T11:34:48.230Z,9.60
2018-05-10T11:37:17.335Z,8.40
2018-05-10T11:39:46.420Z,8.60
2018-05-10T11:42:15.516Z,8.50
2018-05-10T11:44:44.902Z,8.17
2018-05-10T11:47:13.212Z,8.53
2018-05-10T11:49:41.567Z,8.23
2018-05-10T11:52:09.938Z,9.20
2018-05-10T11:54:38.254Z,9.23
2018-05-10T11:57:06.566Z,8.50
2018-05-10T11:59:34.933Z,9.17
2018-05-10T12:02:03.287Z,8.13
2018-05-10T12:04:32.479Z,8.00
2018-05-10T12:07:01.911Z,7.13
2018-05-10T12:09:30.232Z,7.83
2018-05-10T12:11:58.558Z,8.70
2018-05-10T12:14:26.927Z,8.43
2018-05-10T12:16:55.292Z,8.43
2018-05-10T12:19:24.423Z,8.27
2018-05-10T12:21:52.792Z,10.23
2018-05-10T12:24:21.121Z,9.00
2018-05-10T12:26:49.451Z,8.90
2018-05-10T12:29:18.045Z,9.83
2018-05-10T12:31:46.376Z,9.13
2018-05-10T12:34:14.675Z,9.40
2018-05-10T12:36:43.775Z,9.03
2018-05-10T12:39:12.854Z,9.50
2018-05-10T12:41:42.028Z,10.47
2018-05-10T12:44:11.125Z,9.70
2018-05-10T12:46:39.458Z,9.63
2018-05-10T12:49:07.797Z,10.47
2018-05-10T12:51:36.616Z,10.17
2018-05-10T12:54:04.958Z,10.60
2018-05-10T12:56:33.865Z,11.20
2018-05-10T12:59:03.008Z,12.47
2018-05-10T13:01:31.391Z,11.50
2018-05-10T13:03:59.718Z,11.73
2018-05-10T13:06:28.079Z,10.80
2018-05-10T13:08:56.428Z,10.80
2018-05-10T13:11:24.749Z,10.17
2018-05-10T13:13:53.534Z,9.70
2018-05-10T13:16:21.869Z,10.33
2018-05-10T13:18:50.211Z,10.60
2018-05-10T13:21:19.342Z,9.37
2018-05-10T13:23:47.672Z,8.00
2018-05-10T13:26:16.032Z,9.27
2018-05-10T13:28:44.366Z,7.93
2018-05-10T13:31:12.702Z,7.93
2018-05-10T13:33:41.026Z,9.23
2018-05-10T13:36:09.703Z,8.90
2018-05-10T13:38:38.032Z,10.83
2018-05-10T13:41:07.138Z,11.10
2018-05-10T13:43:35.496Z,13.10
2018-05-10T13:46:03.804Z,12.30
2018-05-10T13:48:32.147Z,12.73
2018-05-10T13:51:00.487Z,14.97
2018-05-10T13:53:29.582Z,9.83
2018-05-10T13:55:58.657Z,6.63
2018-05-10T13:58:27.443Z,11.40
2018-05-10T14:00:55.778Z,13.00
2018-05-10T14:03:24.138Z,14.83
2018-05-10T14:05:52.477Z,17.00
2018-05-10T14:08:20.836Z,16.37
2018-05-10T14:10:49.289Z,20.53
2018-05-10T14:13:17.593Z,18.07
2018-05-10T14:15:45.972Z,16.33
2018-05-10T14:18:14.320Z,15.50
2018-05-10T14:20:43.392Z,16.33
2018-05-10T14:23:11.762Z,15.30
2018-05-10T14:25:40.855Z,15.47
2018-05-10T14:28:09.975Z,18.20
2018-05-10T14:30:39.062Z,19.10
2018-05-10T14:33:08.172Z,25.77
2018-05-10T14:35:36.522Z,33.70
2018-05-10T14:38:04.877Z,39.10
2018-05-10T14:40:33.195Z,43.30
2018-05-10T14:43:02.514Z,48.47
2018-05-10T14:45:30.826Z,47.70
2018-05-10T14:47:59.171Z,44.70
2018-05-10T14:50:27.538Z,42.40
2018-05-10T14:52:56.653Z,39.60
2018-05-10T14:55:25.004Z,33.23
2018-05-10T14:57:53.376Z,34.30
2018-05-10T15:00:22.464Z,36.70
2018-05-10T15:02:50.788Z,34.93
2018-05-10T15:05:19.391Z,36.40
2018-05-10T15:07:47.723Z,36.47
2018-05-10T15:10:16.823Z,33.43
2018-05-10T15:12:45.198Z,34.90
2018-05-10T15:15:13.528Z,31.50
2018-05-10T15:17:42.654Z,28.50
2018-05-10T15:20:11.023Z,27.30
2018-05-10T15:22:39.340Z,27.23
2018-05-10T15:25:07.670Z,29.97
2018-05-10T15:27:36.211Z,27.50
2018-05-10T15:30:04.554Z,26.17
2018-05-10T15:32:32.947Z,22.63
2018-05-10T15:35:01.303Z,20.90
2018-05-10T15:37:29.617Z,19.27
2018-05-10T15:39:57.952Z,16.33
2018-05-10T15:42:26.330Z,14.90
2018-05-10T15:44:54.655Z,13.77
2018-05-10T15:47:23.006Z,14.63
2018-05-10T15:49:52.007Z,14.07
2018-05-10T15:52:20.340Z,13.13
2018-05-10T15:54:48.653Z,12.10
2018-05-10T15:57:17.027Z,13.60
2018-05-10T15:59:45.325Z,13.37
2018-05-10T16:02:13.636Z,13.67
2018-05-10T16:04:41.978Z,13.03
2018-05-10T16:07:11.077Z,11.23
2018-05-10T16:09:40.167Z,9.83
2018-05-10T16:12:09.501Z,9.40
2018-05-10T16:14:37.860Z,6.87
2018-05-10T16:17:06.184Z,6.40
2018-05-10T16:19:34.542Z,5.60
2018-05-10T16:22:02.875Z,5.20
2018-05-10T16:24:31.240Z,5.07
2018-05-10T16:26:59.581Z,5.37
2018-05-10T16:29:27.894Z,5.27
2018-05-10T16:31:56.214Z,4.50
2018-05-10T16:34:24.990Z,4.67
2018-05-10T16:36:54.093Z,4.80
2018-05-10T16:39:23.279Z,4.87
2018-05-10T16:41:51.568Z,4.40
2018-05-10T16:44:20.656Z,4.70
2018-05-10T16:46:48.962Z,4.73
2018-05-10T16:49:17.310Z,4.77
2018-05-10T16:51:45.687Z,4.40
2018-05-10T16:54:14.013Z,5.27
2018-05-10T16:56:42.854Z,4.27
2018-05-10T16:59:11.181Z,5.13
2018-05-10T17:01:39.511Z,5.03
2018-05-10T17:04:07.843Z,5.30
2018-05-10T17:06:36.166Z,4.87
2018-05-10T17:09:04.523Z,5.13
2018-05-10T17:11:33.643Z,5.37
2018-05-10T17:14:01.977Z,4.80
2018-05-10T17:16:30.326Z,4.90
2018-05-10T17:18:58.978Z,4.63
2018-05-10T17:21:27.312Z,4.97
2018-05-10T17:23:55.656Z,4.47
2018-05-10T17:26:24.830Z,4.73
2018-05-10T17:28:53.148Z,4.20
2018-05-10T17:31:21.479Z,4.57
2018-05-10T17:33:49.831Z,4.80
2018-05-10T17:36:18.145Z,4.70
2018-05-10T17:38:46.471Z,4.40
2018-05-10T17:41:15.116Z,4.90
2018-05-10T17:43:43.457Z,3.87
2018-05-10T17:46:11.772Z,4.10
2018-05-10T17:48:40.101Z,3.80
2018-05-10T17:51:08.445Z,3.93
2018-05-10T17:53:36.788Z,3.50
2018-05-10T17:56:05.146Z,3.20
2018-05-10T17:58:33.471Z,4.23
2018-05-10T18:01:01.874Z,3.53
2018-05-10T18:03:30.446Z,4.13
2018-05-10T18:05:58.778Z,3.40
2018-05-10T18:08:27.122Z,3.57
2018-05-10T18:10:55.479Z,3.60
2018-05-10T18:13:23.809Z,3.37
2018-05-10T18:15:52.122Z,3.27
2018-05-10T18:18:20.478Z,3.23
2018-05-10T18:20:48.842Z,3.50
2018-05-10T18:23:17.323Z,4.50
2018-05-10T18:25:46.785Z,3.93
2018-05-10T18:28:15.866Z,3.77
2018-05-10T18:30:44.172Z,3.27
2018-05-10T18:33:12.534Z,3.10
2018-05-10T18:35:41.651Z,3.10
2018-05-10T18:38:10.054Z,3.70
2018-05-10T18:40:38.385Z,3.30
2018-05-10T18:43:07.449Z,3.33
2018-05-10T18:45:35.807Z,3.80
2018-05-10T18:48:04.293Z,3.40
2018-05-10T18:50:32.588Z,3.37
2018-05-10T18:53:00.944Z,3.93
2018-05-10T18:55:29.295Z,4.00
2018-05-10T18:57:58.376Z,3.33
2018-05-10T19:00:27.483Z,3.80
2018-05-10T19:02:55.844Z,3.13
2018-05-10T19:05:24.955Z,3.27
2018-05-10T19:07:53.312Z,3.50
2018-05-10T19:10:21.890Z,3.17
2018-05-10T19:12:50.215Z,3.67
2018-05-10T19:15:18.666Z,3.37
2018-05-10T19:17:46.924Z,3.40
2018-05-10T19:20:15.290Z,4.10
2018-05-10T19:22:43.599Z,3.60
2018-05-10T19:25:11.933Z,3.40
2018-05-10T19:27:40.245Z,3.40
2018-05-10T19:30:08.622Z,3.67
2018-05-10T19:32:37.466Z,3.30
2018-05-10T19:35:05.783Z,3.50
2018-05-10T19:37:34.137Z,3.50
2018-05-10T19:40:02.490Z,3.37
2018-05-10T19:42:30.809Z,4.00
2018-05-10T19:44:59.127Z,4.43
2018-05-10T19:47:28.266Z,4.60
2018-05-10T19:49:56.624Z,4.10
2018-05-10T19:52:24.941Z,4.27
2018-05-10T19:54:53.810Z,5.73
2018-05-10T19:57:22.170Z,5.30
2018-05-10T19:59:50.500Z,4.70
2018-05-10T20:02:19.075Z,4.73
2018-05-10T20:04:47.395Z,5.00
2018-05-10T20:07:16.490Z,5.23
2018-05-10T20:09:45.626Z,4.90
2018-05-10T20:12:13.984Z,5.30
2018-05-10T20:14:42.335Z,5.87
2018-05-10T20:17:11.632Z,5.20
2018-05-10T20:19:39.958Z,5.00
2018-05-10T20:22:08.267Z,4.90
2018-05-10T20:24:36.672Z,5.60
2018-05-10T20:27:04.987Z,5.27
2018-05-10T20:29:33.293Z,5.60
2018-05-10T20:32:01.637Z,6.20
2018-05-10T20:34:29.979Z,5.37
2018-05-10T20:36:58.326Z,6.00
2018-05-10T20:39:26.737Z,6.20
2018-05-10T20:41:55.040Z,5.70
2018-05-10T20:44:24.157Z,6.17
2018-05-10T20:46:52.515Z,5.90
2018-05-10T20:49:20.907Z,5.23
2018-05-10T20:51:49.295Z,5.40
2018-05-10T20:54:17.648Z,6.37
2018-05-10T20:56:46.764Z,6.17
2018-05-10T20:59:15.085Z,6.00
2018-05-10T21:01:43.794Z,5.73
2018-05-10T21:04:12.125Z,5.40
2018-05-10T21:06:40.443Z,4.77
2018-05-10T21:09:08.804Z,5.43
2018-05-10T21:11:37.129Z,5.20
2018-05-10T21:14:06.231Z,5.13
2018-05-10T21:16:34.728Z,5.20
2018-05-10T21:19:02.968Z,5.80
2018-05-10T21:21:31.326Z,5.90
2018-05-10T21:23:59.937Z,5.73
2018-05-10T21:26:29.048Z,5.00
2018-05-10T21:28:57.353Z,6.30
2018-05-10T21:31:25.690Z,4.97
2018-05-10T21:33:54.868Z,5.50
2018-05-10T21:36:23.095Z,4.93
2018-05-10T21:38:51.474Z,5.17
2018-05-10T21:41:19.815Z,5.37
2018-05-10T21:43:48.165Z,5.20
2018-05-10T21:46:16.835Z,5.43
2018-05-10T21:48:45.139Z,5.50
2018-05-10T21:51:13.463Z,5.90
2018-05-10T21:53:41.965Z,5.23
2018-05-10T21:56:10.261Z,5.10
2018-05-10T21:58:38.636Z,4.83
2018-05-10T22:01:06.998Z,6.30
2018-05-10T22:03:35.336Z,5.63
2018-05-10T22:06:04.429Z,6.43
2018-05-10T22:08:33.217Z,4.93
2018-05-10T22:11:01.516Z,5.13
2018-05-10T22:13:30.608Z,4.10
2018-05-10T22:15:59.743Z,5.43
2018-05-10T22:18:28.081Z,5.43
2018-05-10T22:20:57.184Z,5.77
2018-05-10T22:23:25.517Z,5.67
2018-05-10T22:25:53.857Z,5.27
2018-05-10T22:28:22.220Z,5.50
2018-05-10T22:30:51.560Z,5.27
2018-05-10T22:33:19.890Z,5.00
2018-05-10T22:35:48.985Z,5.10
2018-05-10T22:38:17.357Z,5.97
2018-05-10T22:40:46.444Z,5.03
2018-05-10T22:43:14.787Z,5.13
2018-05-10T22:45:43.155Z,5.90
2018-05-10T22:48:11.459Z,6.00
2018-05-10T22:50:40.536Z,5.47
2018-05-10T22:53:09.279Z,4.90
2018-05-10T22:55:38.375Z,6.57
2018-05-10T22:58:07.456Z,5.97
2018-05-10T23:00:36.271Z,5.60
2018-05-10T23:03:04.579Z,6.10
2018-05-10T23:05:32.910Z,5.03
2018-05-10T23:08:02.072Z,5.50
2018-05-10T23:10:30.377Z,6.23
2018-05-10T23:12:58.678Z,5.37
2018-05-10T23:15:28.038Z,5.90
2018-05-10T23:17:56.336Z,5.80
2018-05-10T23:20:24.712Z,5.63
2018-05-10T23:22:53.100Z,5.60
2018-05-10T23:25:21.396Z,5.33
2018-05-10T23:27:50.480Z,5.60
2018-05-10T23:30:19.589Z,5.80
2018-05-10T23:32:48.666Z,6.00
2018-05-10T23:35:16.985Z,5.30
2018-05-10T23:37:46.303Z,5.10
2018-05-10T23:40:14.634Z,5.93
2018-05-10T23:42:43.747Z,5.87
2018-05-10T23:45:12.840Z,6.30
2018-05-10T23:47:41.155Z,5.73
2018-05-10T23:50:09.464Z,6.10
2018-05-10T23:52:37.833Z,5.70
2018-05-10T23:55:06.170Z,5.20
2018-05-10T23:57:34.484Z,5.27
